Time;durP1;ratioP1;P1;durP2;ratioP2;P2;SDS_P1;SDS_P2;PMS_P1;PMS_P2;Temp;Humidity;BMP_temperature;BMP_pressure;BME280_temperature;BME280_humidity;BME280_pressure;Samples;Min_cycle;Max_cycle;Signal;HPM_P1;HPM_P2
2021/05/28 00:02:43;;;;;;;8.47;6.57;;;;;;;10.45;63.79;98992.58;2082871;85;21513;-80
2021/05/28 00:05:44;;;;;;;9.63;7.20;;;;;;;10.35;64.05;99002.83;2082584;85;20960;-80
2021/05/28 00:08:45;;;;;;;8.10;6.90;;;;;;;10.23;64.51;98997.42;2082865;85;20949;-80
2021/05/28 00:11:46;;;;;;;9.23;6.70;;;;;;;10.19;64.46;98998.64;2083163;85;21059;-81
2021/05/28 00:14:47;;;;;;;8.47;6.87;;;;;;;10.14;64.65;99000.30;2082954;85;20996;-80
2021/05/28 00:17:48;;;;;;;8.10;6.27;;;;;;;10.06;64.54;99001.03;2083108;85;20952;-80
2021/05/28 00:20:49;;;;;;;8.17;6.73;;;;;;;9.99;64.61;99001.78;2085897;85;21043;-80
2021/05/28 00:23:50;;;;;;;10.33;6.30;;;;;;;9.94;65.02;99003.02;2093957;85;20997;-80
2021/05/28 00:26:51;;;;;;;14.00;6.60;;;;;;;9.91;65.05;98997.75;2094018;85;20951;-81
2021/05/28 00:29:52;;;;;;;11.40;6.33;;;;;;;9.88;64.98;98998.58;2094206;85;21062;-80
2021/05/28 00:32:53;;;;;;;9.73;6.47;;;;;;;9.83;64.98;98992.41;2093809;85;21004;-81
2021/05/28 00:35:54;;;;;;;9.37;6.53;;;;;;;9.69;65.14;98998.23;2093920;85;21099;-81
2021/05/28 00:38:55;;;;;;;9.70;8.03;;;;;;;9.62;65.40;99004.18;2093733;85;21039;-80
2021/05/28 00:41:56;;;;;;;9.67;7.33;;;;;;;9.57;66.02;99002.37;2094126;85;21101;-81
2021/05/28 00:44:57;;;;;;;8.80;5.97;;;;;;;9.56;66.05;99000.61;2094049;85;21355;-80
2021/05/28 00:47:58;;;;;;;8.13;6.40;;;;;;;9.55;65.86;99003.20;2093822;85;21354;-80
2021/05/28 00:50:59;;;;;;;9.40;6.60;;;;;;;9.51;65.86;99007.86;2094108;85;20980;-80
2021/05/28 00:54:00;;;;;;;8.67;6.97;;;;;;;9.47;66.05;99014.75;2094460;85;21045;-81
2021/05/28 00:57:01;;;;;;;7.30;6.53;;;;;;;9.46;66.25;99015.59;2094027;85;20991;-80
2021/05/28 01:00:03;;;;;;;23.47;7.40;;;;;;;9.46;66.16;99019.50;2093773;85;20992;-80
2021/05/28 01:03:04;;;;;;;12.93;7.50;;;;;;;9.43;66.33;99023.35;2093808;85;21126;-81
2021/05/28 01:06:05;;;;;;;10.63;7.13;;;;;;;9.40;66.34;99027.20;2094055;85;20971;-81
2021/05/28 01:09:06;;;;;;;24.07;7.60;;;;;;;9.37;66.78;99020.63;2093553;85;21000;-80
2021/05/28 01:12:07;;;;;;;13.07;7.63;;;;;;;9.32;66.64;99023.57;2093721;85;21071;-80
2021/05/28 01:15:07;;;;;;;8.97;7.30;;;;;;;9.22;66.52;99029.45;2093676;85;20995;-81
2021/05/28 01:18:08;;;;;;;13.47;7.43;;;;;;;9.15;66.93;99028.45;2093599;85;21392;-80
2021/05/28 01:21:09;;;;;;;11.60;7.10;;;;;;;9.07;66.97;99023.50;2093552;85;21040;-80
2021/05/28 01:24:10;;;;;;;10.60;7.03;;;;;;;8.98;67.21;99027.22;2093946;85;20955;-80
2021/05/28 01:27:11;;;;;;;12.13;7.27;;;;;;;8.85;67.43;99024.78;2093757;85;20932;-80
2021/05/28 01:30:12;;;;;;;11.17;6.57;;;;;;;8.81;67.69;99025.56;2093729;85;21400;-80
2021/05/28 01:33:13;;;;;;;9.17;6.30;;;;;;;8.76;67.89;99025.88;2093671;85;21384;-80
2021/05/28 01:36:14;;;;;;;9.43;6.37;;;;;;;8.74;68.10;99026.27;2093617;85;21062;-80
2021/05/28 01:39:15;;;;;;;7.03;6.17;;;;;;;8.75;68.16;99027.16;2093557;85;20968;-80
2021/05/28 01:42:16;;;;;;;9.70;6.27;;;;;;;8.75;68.27;99032.36;2093725;85;20991;-81
2021/05/28 01:45:17;;;;;;;23.53;10.10;;;;;;;8.71;68.22;99027.93;2093812;85;21357;-80
2021/05/28 01:48:18;;;;;;;9.27;7.40;;;;;;;8.71;68.57;99026.20;2093748;85;20995;-81
2021/05/28 01:51:19;;;;;;;13.17;7.27;;;;;;;8.69;68.48;99029.20;2093579;85;21372;-80
2021/05/28 01:54:22;;;;;;;8.57;7.07;;;;;;;8.63;68.46;99036.41;2093732;85;20956;-80
2021/05/28 01:57:22;;;;;;;148.80;18.93;;;;;;;8.59;68.58;99037.19;2093447;85;21435;-80
2021/05/28 02:00:24;;;;;;;22.27;8.67;;;;;;;8.54;68.86;99045.73;2093914;85;21399;-80
2021/05/28 02:03:25;;;;;;;13.63;7.47;;;;;;;8.56;69.06;99037.12;2094646;85;21075;-80
2021/05/28 02:06:26;;;;;;;62.20;9.30;;;;;;;8.51;68.83;99043.94;2093966;85;21007;-82
2021/05/28 02:09:27;;;;;;;8.80;6.97;;;;;;;8.50;69.15;99049.98;2093666;85;21375;-80
2021/05/28 02:12:28;;;;;;;17.67;7.90;;;;;;;8.46;68.99;99044.67;2093702;85;21053;-80
2021/05/28 02:15:29;;;;;;;81.03;10.70;;;;;;;8.40;69.28;99045.83;2093637;85;21031;-78
2021/05/28 02:18:30;;;;;;;11.03;7.30;;;;;;;8.41;69.57;99051.08;2093635;85;21064;-80
2021/05/28 02:21:31;;;;;;;9.93;7.17;;;;;;;8.44;69.43;99049.84;2090318;83;21048;-80
2021/05/28 02:24:32;;;;;;;10.10;7.10;;;;;;;8.41;69.46;99054.09;2083227;85;21035;-81
2021/05/28 02:27:33;;;;;;;12.83;7.03;;;;;;;8.39;69.51;99045.38;2083170;85;20965;-79
2021/05/28 02:30:34;;;;;;;12.10;7.43;;;;;;;8.36;69.45;99054.41;2083187;85;21084;-80
2021/05/28 02:33:35;;;;;;;12.63;7.10;;;;;;;8.38;69.62;99051.42;2083143;85;21016;-79
2021/05/28 02:36:36;;;;;;;11.63;6.80;;;;;;;8.37;69.48;99053.14;2082881;85;20999;-80
2021/05/28 02:39:37;;;;;;;31.47;9.43;;;;;;;8.35;69.49;99062.63;2082763;85;20988;-80
2021/05/28 02:42:38;;;;;;;11.43;7.33;;;;;;;8.37;69.83;99061.38;2083119;85;20972;-81
2021/05/28 02:45:39;;;;;;;14.63;7.27;;;;;;;8.43;69.85;99064.11;2082965;85;20999;-80
2021/05/28 02:48:40;;;;;;;25.17;8.40;;;;;;;8.50;69.73;99067.31;2083038;85;21071;-81
2021/05/28 02:51:41;;;;;;;20.50;8.33;;;;;;;8.55;69.76;99067.00;2083080;85;20944;-80
2021/05/28 02:54:42;;;;;;;13.47;7.10;;;;;;;8.62;69.63;99060.67;2083496;85;21332;-79
2021/05/28 02:57:43;;;;;;;13.33;7.13;;;;;;;8.73;69.44;99061.38;2083561;85;20984;-79
2021/05/28 03:00:44;;;;;;;9.80;7.70;;;;;;;8.78;69.34;99066.26;2083342;85;21355;-81
2021/05/28 03:03:45;;;;;;;68.03;12.63;;;;;;;8.85;69.31;99070.75;2083163;85;21036;-81
2021/05/28 03:06:46;;;;;;;12.83;8.83;;;;;;;8.86;69.40;99066.88;2083014;85;21023;-81
2021/05/28 03:09:46;;;;;;;11.83;8.30;;;;;;;8.93;69.50;99066.17;2083097;85;21350;-80
2021/05/28 03:12:48;;;;;;;33.33;9.43;;;;;;;9.02;69.36;99066.80;2083132;85;21032;-81
2021/05/28 03:15:49;;;;;;;13.70;8.50;;;;;;;9.05;69.29;99059.05;2083175;85;20984;-79
2021/05/28 03:18:53;;;;;;;18.47;9.50;;;;;;;9.13;69.41;99063.11;2083505;85;20980;-80
2021/05/28 03:25:11;;;;;;;13.97;10.43;;;;;;;9.21;69.43;99066.76;2083101;85;21020;-80
2021/05/28 03:28:13;;;;;;;16.47;9.33;;;;;;;9.29;69.65;99072.13;2083151;85;20966;-80
2021/05/28 03:31:13;;;;;;;20.23;10.47;;;;;;;9.38;69.49;99071.01;2083157;85;21078;-81
2021/05/28 03:34:14;;;;;;;12.00;9.77;;;;;;;9.51;69.44;99070.40;2083093;85;21075;-81
2021/05/28 03:37:15;;;;;;;12.77;9.43;;;;;;;9.58;69.28;99067.98;2083164;85;21032;-80
2021/05/28 03:40:16;;;;;;;12.43;9.53;;;;;;;9.58;69.16;99069.28;2083288;85;20988;-80
2021/05/28 03:43:17;;;;;;;14.87;10.53;;;;;;;9.60;69.24;99071.04;2083192;85;21017;-80
2021/05/28 03:46:18;;;;;;;14.23;9.33;;;;;;;9.67;69.24;99078.13;2083255;85;21024;-80
2021/05/28 03:49:19;;;;;;;11.30;8.40;;;;;;;9.78;69.29;99081.81;2083302;85;20961;-80
2021/05/28 03:52:20;;;;;;;13.63;8.40;;;;;;;9.86;68.99;99081.53;2083099;85;20964;-80
2021/05/28 03:55:21;;;;;;;17.27;9.20;;;;;;;9.92;68.80;99081.64;2082711;85;20964;-81
2021/05/28 03:58:22;;;;;;;14.60;10.43;;;;;;;9.98;68.71;99091.30;2083075;85;21295;-79
2021/05/28 04:01:24;;;;;;;15.33;11.13;;;;;;;9.98;68.60;99090.00;2082927;85;20984;-79
2021/05/28 04:04:25;;;;;;;14.13;10.63;;;;;;;10.00;68.54;99087.87;2082284;85;21456;-80
2021/05/28 04:07:27;;;;;;;17.83;10.00;;;;;;;10.03;68.51;99085.74;2082703;85;20989;-79
2021/05/28 04:10:28;;;;;;;22.10;10.53;;;;;;;10.10;68.44;99083.27;2083023;85;21056;-80
2021/05/28 04:13:29;;;;;;;12.47;10.60;;;;;;;10.11;68.36;99082.41;2082877;85;21036;-80
2021/05/28 04:16:30;;;;;;;12.73;9.73;;;;;;;10.09;68.12;99074.99;2082715;85;21071;-79
2021/05/28 04:19:35;;;;;;;12.80;9.77;;;;;;;10.12;68.25;99087.20;2082612;85;21762;-80
2021/05/28 04:22:36;;;;;;;13.30;9.20;;;;;;;10.12;68.20;99094.61;2083046;85;21080;-80
2021/05/28 04:25:40;;;;;;;13.13;9.13;;;;;;;10.15;68.19;99089.87;2082831;85;21013;-80
2021/05/28 04:28:42;;;;;;;14.83;10.10;;;;;;;10.15;68.29;99093.78;2083034;85;20988;-80
2021/05/28 04:31:44;;;;;;;11.13;8.70;;;;;;;10.17;68.18;99098.17;2082452;86;21035;-80
2021/05/28 04:34:45;;;;;;;28.43;9.87;;;;;;;10.26;68.06;99099.22;2082875;86;21039;-80
2021/05/28 04:37:45;;;;;;;14.33;8.90;;;;;;;10.40;67.97;99092.50;2082613;86;20996;-80
2021/05/28 04:40:48;;;;;;;11.30;8.57;;;;;;;10.63;67.71;99101.61;2082276;86;21682;-79
2021/05/28 04:43:49;;;;;;;13.43;9.40;;;;;;;10.91;67.41;99099.41;2082371;86;20997;-80
2021/05/28 04:46:50;;;;;;;14.30;7.80;;;;;;;11.12;66.91;99097.97;2082672;86;20972;-79
2021/05/28 04:49:51;;;;;;;13.50;8.57;;;;;;;11.34;66.68;99101.78;2082471;86;21111;-78
2021/05/28 04:52:54;;;;;;;10.43;8.53;;;;;;;11.46;66.37;99103.23;2082515;85;21058;-78
2021/05/28 04:55:55;;;;;;;10.68;8.38;;;;;;;11.42;65.92;99096.22;2082475;86;20996;-78
2021/05/28 04:58:56;;;;;;;10.25;8.68;;;;;;;11.63;65.95;99090.37;2082605;86;21069;-78
2021/05/28 05:01:57;;;;;;;12.00;8.68;;;;;;;11.83;65.81;99082.77;2082610;85;20968;-78
2021/05/28 05:04:58;;;;;;;10.00;8.10;;;;;;;11.86;65.55;99082.80;2082565;85;21132;-80
2021/05/28 05:08:00;;;;;;;9.68;7.97;;;;;;;11.94;65.42;99092.92;2082599;86;20984;-79
2021/05/28 05:14:04;;;;;;;10.65;7.95;;;;;;;12.36;64.52;99098.14;2057436;86;21071;-78
2021/05/28 05:17:05;;;;;;;7.85;7.15;;;;;;;12.42;63.85;99106.05;2082245;86;21063;-78
2021/05/28 05:20:06;;;;;;;7.62;6.83;;;;;;;12.31;63.85;99102.46;2082551;85;20964;-78
2021/05/28 05:23:07;;;;;;;8.43;6.83;;;;;;;12.43;63.63;99099.52;2082391;85;21015;-78
2021/05/28 05:26:08;;;;;;;9.03;7.22;;;;;;;12.47;63.35;99108.27;2082458;85;20929;-78
2021/05/28 05:29:09;;;;;;;8.05;6.62;;;;;;;12.53;63.28;99104.39;2082433;85;21044;-79
2021/05/28 05:32:10;;;;;;;8.35;6.55;;;;;;;12.65;62.87;99109.73;2082941;85;20992;-78
2021/05/28 05:35:11;;;;;;;8.45;7.50;;;;;;;12.82;63.28;99114.22;2082298;85;21097;-78
2021/05/28 05:38:12;;;;;;;7.12;6.37;;;;;;;13.01;62.54;99117.00;2082492;85;20957;-78
2021/05/28 05:41:13;;;;;;;7.72;6.37;;;;;;;13.12;62.03;99117.06;2082501;85;21095;-78
2021/05/28 05:44:14;;;;;;;7.28;6.58;;;;;;;13.22;61.90;99115.41;2082719;85;20940;-78
2021/05/28 05:47:15;;;;;;;11.68;6.53;;;;;;;13.28;61.08;99111.08;2082393;85;20952;-78
2021/05/28 05:50:16;;;;;;;6.53;5.90;;;;;;;13.37;61.25;99115.05;2082608;85;20949;-78
2021/05/28 05:53:17;;;;;;;6.92;6.12;;;;;;;13.51;60.93;99112.49;2082593;85;21075;-78
2021/05/28 05:56:18;;;;;;;7.05;6.08;;;;;;;13.76;60.95;99109.53;2082209;85;21008;-79
2021/05/28 05:59:19;;;;;;;9.75;5.83;;;;;;;13.93;59.89;99111.80;2082561;85;21036;-80
2021/05/28 06:02:20;;;;;;;6.42;5.15;;;;;;;14.05;59.75;99112.70;2082589;85;21047;-79
2021/05/28 06:05:21;;;;;;;5.87;4.50;;;;;;;14.30;59.71;99112.73;2082691;85;21052;-78
2021/05/28 06:08:22;;;;;;;5.83;5.25;;;;;;;14.54;58.56;99113.66;2082708;85;21075;-79
2021/05/28 06:11:23;;;;;;;8.58;4.97;;;;;;;14.74;58.10;99116.29;2082960;85;20936;-79
2021/05/28 06:14:25;;;;;;;5.55;4.65;;;;;;;14.86;57.53;99114.56;2083087;85;21099;-78
2021/05/28 06:17:26;;;;;;;11.30;4.65;;;;;;;14.93;57.70;99112.80;2082473;85;21032;-79
2021/05/28 06:20:27;;;;;;;4.33;3.92;;;;;;;15.10;57.49;99110.14;2082209;85;20960;-79
2021/05/28 06:23:28;;;;;;;5.00;4.10;;;;;;;15.31;56.67;99114.03;2082209;85;21016;-80
2021/05/28 06:26:28;;;;;;;7.87;4.28;;;;;;;15.29;56.43;99117.98;2082696;85;20972;-79
2021/05/28 06:32:32;;;;;;;5.05;3.60;;;;;;;15.71;54.92;99120.09;2056879;85;21043;-80
2021/05/28 06:35:33;;;;;;;5.35;3.77;;;;;;;15.72;54.50;99115.25;2082605;85;21108;-79
2021/05/28 06:38:34;;;;;;;4.42;4.03;;;;;;;15.89;54.23;99116.05;2082634;85;21096;-80
2021/05/28 06:41:37;;;;;;;3.40;3.10;;;;;;;15.95;52.98;99118.22;2082406;85;20971;-79
2021/05/28 06:44:40;;;;;;;5.80;3.35;;;;;;;16.30;53.74;99117.56;2057570;85;20979;-78
2021/05/28 06:47:43;;;;;;;3.70;3.40;;;;;;;16.40;51.48;99117.92;2082995;85;20978;-80
2021/05/28 06:50:44;;;;;;;3.90;3.27;;;;;;;16.34;51.18;99119.28;2083208;85;21435;-80
2021/05/28 06:53:45;;;;;;;5.10;3.72;;;;;;;16.61;50.92;99120.00;2083165;85;20987;-80
2021/05/28 06:56:46;;;;;;;3.47;3.17;;;;;;;16.76;50.82;99112.87;2083015;85;21340;-81
2021/05/28 06:59:47;;;;;;;4.60;2.65;;;;;;;16.71;51.36;99121.26;2082960;85;20985;-82
2021/05/28 07:02:50;;;;;;;2.90;2.70;;;;;;;16.33;50.73;99122.80;2082682;85;20967;-79
2021/05/28 07:05:52;;;;;;;2.58;2.00;;;;;;;16.06;50.64;99117.71;2082156;85;21024;-80
2021/05/28 07:08:53;;;;;;;2.70;2.20;;;;;;;16.14;50.05;99117.22;2082236;85;21032;-80
2021/05/28 07:11:54;;;;;;;2.00;1.90;;;;;;;16.52;50.28;99117.86;2082262;85;20976;-80
2021/05/28 07:14:55;;;;;;;14.00;2.70;;;;;;;16.85;49.35;99118.50;2082067;85;20952;-80
2021/05/28 07:17:56;;;;;;;5.28;2.10;;;;;;;16.88;50.21;99114.08;2082703;85;20972;-83
2021/05/28 07:20:57;;;;;;;6.30;2.65;;;;;;;16.84;50.35;99118.07;2082893;85;21012;-80
2021/05/28 07:23:58;;;;;;;3.65;2.00;;;;;;;17.33;49.80;99114.50;2083167;85;20980;-82
2021/05/28 07:27:00;;;;;;;3.55;2.60;;;;;;;17.95;47.56;99116.00;2082577;85;21484;-78
2021/05/28 07:30:05;;;;;;;3.00;2.70;;;;;;;17.95;46.87;99117.33;2082790;85;21055;-79
2021/05/28 07:33:06;;;;;;;6.95;3.00;;;;;;;18.04;47.15;99110.59;2082459;84;20984;-80
2021/05/28 07:36:10;;;;;;;9.73;3.85;;;;;;;17.60;46.99;99115.97;2081989;85;20963;-78
2021/05/28 07:39:11;;;;;;;;;;;;;;;17.50;47.87;99117.85;2085352;85;20972;-81
2021/05/28 07:42:15;;;;;;;5.62;2.10;;;;;;;18.03;46.35;99104.44;2083023;85;20184;-82
2021/05/28 07:45:15;;;;;;;2.35;2.02;;;;;;;18.27;46.44;99107.20;2082263;85;21064;-82
2021/05/28 07:51:19;;;;;;;8.40;2.30;;;;;;;18.75;45.44;99108.67;2056894;85;20988;-81
2021/05/28 07:54:20;;;;;;;4.90;2.75;;;;;;;18.91;45.01;99106.19;2081901;85;21117;-80
2021/05/28 07:57:22;;;;;;;7.30;2.90;;;;;;;18.85;44.49;99108.94;2056968;85;21027;-80
2021/05/28 08:00:24;;;;;;;2.22;1.95;;;;;;;18.57;45.35;99105.85;2082109;85;21048;-79
2021/05/28 08:03:25;;;;;;;7.37;5.33;;;;;;;18.72;43.86;99110.92;2081860;85;21059;-81
2021/05/28 08:06:26;;;;;;;7.17;4.28;;;;;;;18.84;44.49;99110.29;2082353;85;21048;-82
2021/05/28 08:09:28;;;;;;;2.45;2.22;;;;;;;19.43;43.22;99109.22;2082678;85;21385;-83
2021/05/28 08:12:29;;;;;;;3.72;2.80;;;;;;;19.64;42.53;99092.93;2084454;85;20988;-81
2021/05/28 08:15:31;;;;;;;2.00;1.90;;;;;;;19.35;41.72;99105.84;2083367;85;21100;-78
2021/05/28 08:18:33;;;;;;;2.92;2.05;;;;;;;18.69;42.92;99107.45;2082258;85;21032;-81
2021/05/28 08:24:36;;;;;;;11.95;6.78;;;;;;;17.85;44.88;99106.01;2073809;85;21099;-80
2021/05/28 08:27:37;;;;;;;18.87;5.28;;;;;;;17.76;45.29;99108.77;2104391;85;20995;-81
2021/05/28 08:30:38;;;;;;;2.58;2.30;;;;;;;17.44;45.19;99109.13;2105149;85;21011;-81
2021/05/28 08:33:39;;;;;;;2.30;2.10;;;;;;;17.23;45.75;99106.70;2105330;85;21030;-80
2021/05/28 08:36:40;;;;;;;102.85;10.48;;;;;;;17.34;46.13;99116.69;2105005;85;21014;-81
2021/05/28 08:39:41;;;;;;;4.60;3.52;;;;;;;17.31;45.61;99110.13;2104747;85;21039;-80
2021/05/28 08:42:42;;;;;;;3.83;2.95;;;;;;;17.47;46.39;99112.61;2105193;85;21011;-80
2021/05/28 08:45:43;;;;;;;11.45;2.72;;;;;;;17.78;45.75;99107.86;2104373;85;20996;-81
2021/05/28 08:48:45;;;;;;;2.50;2.10;;;;;;;18.02;45.41;99113.70;2104423;85;21016;-80
2021/05/28 08:51:46;;;;;;;8.20;2.85;;;;;;;18.24;45.11;99111.21;2104290;85;20939;-81
2021/05/28 08:54:49;;;;;;;6.40;2.83;;;;;;;18.36;44.39;99104.42;2105256;85;20978;-80
2021/05/28 08:57:50;;;;;;;5.05;2.60;;;;;;;18.30;44.76;99112.44;2104457;85;21427;-81
2021/05/28 09:00:50;;;;;;;2.35;2.08;;;;;;;18.31;44.81;99114.19;2104949;85;20983;-81
2021/05/28 09:03:52;;;;;;;6.78;2.60;;;;;;;18.28;44.31;99112.91;2105268;85;21211;-79
2021/05/28 09:06:52;;;;;;;2.58;2.00;;;;;;;18.40;44.54;99108.77;2104904;85;21012;-80
2021/05/28 09:09:54;;;;;;;2.80;2.52;;;;;;;18.22;43.05;99118.29;2104927;85;21422;-79
2021/05/28 09:12:55;;;;;;;6.20;3.98;;;;;;;18.09;44.50;99118.00;2104382;85;20982;-81
2021/05/28 09:15:57;;;;;;;5.20;3.33;;;;;;;18.31;44.03;99114.19;2104327;85;21091;-80
2021/05/28 09:18:58;;;;;;;2.67;2.22;;;;;;;18.45;43.53;99108.69;2104609;85;21673;-81
2021/05/28 09:21:59;;;;;;;2.12;1.92;;;;;;;18.44;43.29;99106.95;2105003;85;21066;-79
2021/05/28 09:25:00;;;;;;;1.90;1.80;;;;;;;18.38;43.61;99098.66;2094095;84;21448;-80
2021/05/28 09:28:01;;;;;;;4.92;2.17;;;;;;;18.61;43.12;99104.94;2093662;85;21079;-79
2021/05/28 09:31:02;;;;;;;2.15;1.35;;;;;;;18.92;42.45;99101.77;2093846;85;20980;-78
2021/05/28 09:34:03;;;;;;;7.85;1.60;;;;;;;19.21;41.13;99107.89;2093824;85;21110;-79
2021/05/28 09:37:04;;;;;;;2.65;2.20;;;;;;;19.52;40.52;99102.45;2093523;85;21378;-78
2021/05/28 09:40:05;;;;;;;2.98;2.00;;;;;;;19.52;39.25;99101.55;2093431;85;21332;-78
2021/05/28 09:43:11;;;;;;;4.00;3.60;;;;;;;19.20;40.39;99101.72;2093353;85;20992;-80
2021/05/28 09:46:08;;;;;;;3.72;2.10;;;;;;;19.17;40.43;99100.91;2092881;85;20971;-79
2021/05/28 09:49:09;;;;;;;3.12;1.60;;;;;;;18.96;40.95;99103.02;2093676;85;21369;-80
2021/05/28 09:52:11;;;;;;;1.90;1.80;;;;;;;18.96;41.15;99103.02;2093803;85;20976;-79
2021/05/28 09:55:12;;;;;;;1.37;1.30;;;;;;;18.81;40.67;99102.41;2093457;85;21456;-79
2021/05/28 09:58:13;;;;;;;4.10;1.35;;;;;;;18.83;40.55;99101.93;2093481;85;21528;-79
2021/05/28 10:01:14;;;;;;;2.00;1.37;;;;;;;18.92;40.57;99096.48;2093439;85;21060;-77
2021/05/28 10:04:15;;;;;;;2.72;1.30;;;;;;;18.99;40.21;99091.50;2093209;85;21371;-79
2021/05/28 10:07:18;;;;;;;2.37;2.17;;;;;;;19.04;40.93;99092.29;2074149;85;21063;-80
2021/05/28 10:10:19;;;;;;;5.37;1.70;;;;;;;19.23;40.70;99100.34;2093562;85;20964;-78
2021/05/28 10:13:22;;;;;;;4.60;1.80;;;;;;;19.41;40.63;99100.44;2073787;85;21016;-79
2021/05/28 10:16:24;;;;;;;4.03;1.67;;;;;;;19.54;40.63;99095.34;2093582;85;21352;-79
2021/05/28 10:19:26;;;;;;;1.85;1.62;;;;;;;20.30;39.97;99095.48;2093370;85;21067;-77
2021/05/28 10:22:27;;;;;;;1.40;1.30;;;;;;;20.88;38.69;99094.98;2093232;85;21107;-80
2021/05/28 10:25:28;;;;;;;1.52;1.30;;;;;;;20.96;38.06;99093.45;2083610;85;21039;-79
2021/05/28 10:28:29;;;;;;;2.22;1.60;;;;;;;20.70;36.50;99090.11;2082602;85;20933;-80
2021/05/28 10:31:30;;;;;;;2.30;1.30;;;;;;;20.73;36.35;99082.08;2083212;85;21336;-80
2021/05/28 10:34:31;;;;;;;3.70;1.80;;;;;;;20.77;36.92;99081.55;2083122;85;21003;-78
2021/05/28 10:37:32;;;;;;;2.40;2.17;;;;;;;20.42;37.26;99086.40;2082922;85;20980;-79
2021/05/28 10:43:36;;;;;;;5.47;2.30;;;;;;;20.07;38.61;99072.16;2058685;85;21016;-81
2021/05/28 10:46:37;;;;;;;7.70;2.12;;;;;;;20.07;38.57;99077.91;2082864;85;21056;-79
2021/05/28 10:49:41;;;;;;;15.55;1.70;;;;;;;20.17;38.47;99077.66;2083468;85;21365;-81
2021/05/28 10:52:41;;;;;;;572.15;36.05;;;;;;;20.56;38.58;99077.20;2083344;85;21015;-79
2021/05/28 10:55:42;;;;;;;4.37;1.50;;;;;;;21.16;38.06;99083.18;2083226;85;21604;-79
2021/05/28 10:58:43;;;;;;;2.83;1.40;;;;;;;21.41;37.69;99071.45;2083021;85;21328;-79
2021/05/28 11:01:45;;;;;;;5.22;1.47;;;;;;;21.49;35.26;99069.45;2083258;85;21368;-80
2021/05/28 11:04:46;;;;;;;7.83;1.85;;;;;;;21.65;36.61;99063.70;2082758;85;21088;-79
2021/05/28 11:07:47;;;;;;;3.90;1.80;;;;;;;21.59;35.97;99062.95;2083093;85;20996;-80
2021/05/28 11:10:48;;;;;;;4.37;1.50;;;;;;;21.59;36.03;99064.74;2083208;85;21398;-80
2021/05/28 11:13:49;;;;;;;3.65;1.32;;;;;;;21.27;35.13;99050.61;2082904;85;20992;-79
2021/05/28 11:16:50;;;;;;;6.87;1.98;;;;;;;21.44;35.39;99047.93;2082546;85;21029;-79
2021/05/28 11:19:53;;;;;;;1.50;1.40;;;;;;;21.67;35.90;99046.80;2082323;85;21074;-80
2021/05/28 11:22:54;;;;;;;4.58;1.35;;;;;;;21.99;34.00;99043.19;2082183;85;21012;-79
2021/05/28 11:25:55;;;;;;;1.80;1.62;;;;;;;21.84;34.27;99043.66;2082599;85;21040;-79
2021/05/28 11:28:56;;;;;;;4.30;1.45;;;;;;;21.60;35.20;99040.80;2082240;85;20991;-80
2021/05/28 11:31:57;;;;;;;2.67;1.20;;;;;;;21.63;34.93;99046.47;2082232;85;21016;-79
2021/05/28 11:34:58;;;;;;;3.12;2.30;;;;;;;21.15;35.12;99056.22;2082448;85;21019;-78
2021/05/28 11:37:59;;;;;;;17.35;2.00;;;;;;;20.41;36.33;99056.81;2082126;85;21408;-79
2021/05/28 11:41:00;;;;;;;0.98;0.90;;;;;;;19.75;38.55;99062.70;2082358;85;21064;-79
2021/05/28 11:44:01;;;;;;;2.22;1.00;;;;;;;19.09;39.36;99062.23;2082887;85;21012;-80
2021/05/28 11:47:05;;;;;;;10.68;1.75;;;;;;;18.81;39.83;99066.25;2083617;85;21032;-81
2021/05/28 11:50:05;;;;;;;2.40;1.10;;;;;;;18.49;40.53;99070.73;2083104;85;21087;-78
2021/05/28 11:53:07;;;;;;;1.50;1.07;;;;;;;18.65;41.41;99070.06;2084031;85;20988;-80
2021/05/28 11:56:09;;;;;;;0.98;0.98;;;;;;;18.60;41.24;99067.92;2084110;85;21008;-79
2021/05/28 11:59:10;;;;;;;7.03;2.15;;;;;;;18.69;41.97;99059.86;2083329;85;21041;-79
2021/05/28 12:02:11;;;;;;;5.15;1.30;;;;;;;18.84;41.24;99062.69;2083198;85;21416;-81
2021/05/28 12:05:12;;;;;;;1.57;1.10;;;;;;;18.97;41.53;99067.72;2082997;85;21067;-79
2021/05/28 12:08:13;;;;;;;1.12;1.10;;;;;;;19.12;41.60;99067.05;2082521;85;20976;-80
2021/05/28 12:11:14;;;;;;;2.10;1.17;;;;;;;19.17;41.11;99064.73;2082827;85;21080;-77
2021/05/28 12:14:15;;;;;;;3.05;1.20;;;;;;;19.19;41.30;99066.03;2082463;85;20971;-77
2021/05/28 12:17:16;;;;;;;10.63;1.50;;;;;;;19.11;41.24;99064.84;2082140;85;21111;-80
2021/05/28 12:20:17;;;;;;;1.47;1.25;;;;;;;19.15;41.50;99058.59;2082537;85;21008;-80
2021/05/28 12:23:18;;;;;;;1.77;1.30;;;;;;;19.02;42.40;99062.34;2082719;85;20980;-78
2021/05/28 12:26:21;;;;;;;1.32;1.25;;;;;;;18.93;42.19;99064.71;2037224;86;21020;-79
2021/05/28 12:29:23;;;;;;;2.25;1.30;;;;;;;18.80;42.60;99075.53;2063642;86;20973;-79
2021/05/28 12:32:24;;;;;;;2.05;1.80;;;;;;;18.77;43.44;99062.80;2063675;86;21012;-79
2021/05/28 12:35:25;;;;;;;3.35;1.62;;;;;;;18.76;43.54;99067.66;2063192;83;21448;-79
2021/05/28 12:38:26;;;;;;;2.85;1.60;;;;;;;18.66;43.38;99068.72;2064097;86;21083;-80
2021/05/28 12:41:27;;;;;;;3.70;1.22;;;;;;;18.65;43.22;99061.69;2063707;86;21020;-78
2021/05/28 12:44:32;;;;;;;3.75;1.62;;;;;;;18.63;42.75;99058.20;2063672;86;20996;-80
2021/05/28 12:47:31;;;;;;;4.28;1.55;;;;;;;18.99;42.93;99056.66;2063129;86;21157;-80
2021/05/28 12:50:34;;;;;;;1.60;1.35;;;;;;;19.51;41.77;99043.75;2063580;86;21064;-81
2021/05/28 12:53:35;;;;;;;;;;;;;;;20.13;40.52;99049.49;2066014;86;21012;-80
2021/05/28 12:56:36;;;;;;;2.47;1.37;;;;;;;20.41;39.72;99044.88;2063551;86;20166;-81
2021/05/28 12:59:37;;;;;;;1.30;1.20;;;;;;;20.62;39.47;99044.34;2063966;86;20953;-80
2021/05/28 13:02:40;;;;;;;1.55;1.45;;;;;;;20.51;38.78;99046.40;2063871;86;21012;-81
2021/05/28 13:05:41;;;;;;;1.55;1.32;;;;;;;20.08;39.67;99055.36;2063285;86;21051;-80
2021/05/28 13:08:42;;;;;;;19.75;1.65;;;;;;;19.42;40.85;99069.09;2064431;86;21004;-80
2021/05/28 13:11:44;;;;;;;1.98;1.00;;;;;;;18.46;42.91;99084.88;2063918;86;21115;-82
2021/05/28 13:14:46;;;;;;;2.85;1.70;;;;;;;17.36;46.17;99081.95;2063697;86;20988;-80
2021/05/28 13:17:47;;;;;;;31.90;17.75;;;;;;;16.67;50.60;99077.81;2063908;86;21044;-81
2021/05/28 13:20:48;;;;;;;13.90;8.90;;;;;;;16.21;51.41;99075.48;2063993;86;20980;-78
2021/05/28 13:23:49;;;;;;;4.30;3.33;;;;;;;16.07;51.52;99076.02;2065366;85;21428;-78
2021/05/28 13:26:52;;;;;;;6.17;2.75;;;;;;;16.10;52.17;99070.73;2093258;85;21023;-79
2021/05/28 13:29:53;;;;;;;12.37;10.70;;;;;;;16.20;52.59;99069.34;2093295;85;21039;-79
2021/05/28 13:32:54;;;;;;;2.33;2.12;;;;;;;16.82;52.59;99068.44;2093343;85;21058;-80
2021/05/28 13:35:56;;;;;;;3.42;2.15;;;;;;;17.48;51.74;99065.98;2092657;85;21103;-79
2021/05/28 13:39:00;;;;;;;2.90;2.47;;;;;;;18.61;50.25;99067.02;2092883;85;21429;-78
2021/05/28 13:41:59;;;;;;;2.72;2.45;;;;;;;19.53;47.67;99061.83;2092500;85;21527;-78
2021/05/28 13:45:01;;;;;;;2.90;2.60;;;;;;;20.94;44.04;99055.02;2092854;85;20980;-79
2021/05/28 13:48:02;;;;;;;2.27;2.08;;;;;;;20.94;44.04;99055.02;2092881;85;21011;-79
2021/05/28 13:51:03;;;;;;;3.12;2.37;;;;;;;21.20;42.35;99056.97;2093346;85;21431;-79
2021/05/28 13:54:05;;;;;;;2.30;1.85;;;;;;;21.27;41.57;99051.93;2093375;85;20975;-78
2021/05/28 13:57:06;;;;;;;2.15;1.95;;;;;;;21.62;40.32;99053.58;2093235;85;21063;-78
2021/05/28 14:00:07;;;;;;;10.70;8.00;;;;;;;21.78;39.28;99060.66;2093267;85;21070;-78
2021/05/28 14:03:08;;;;;;;7.35;2.30;;;;;;;21.86;39.31;99057.31;2092986;85;20984;-79
2021/05/28 14:06:10;;;;;;;1.95;1.82;;;;;;;21.93;38.65;99055.34;2092590;85;21114;-79
2021/05/28 14:09:11;;;;;;;2.10;1.82;;;;;;;22.10;38.67;99053.06;2093193;85;21059;-79
2021/05/28 14:12:12;;;;;;;2.20;1.75;;;;;;;22.20;38.02;99051.85;2093366;85;21055;-79
2021/05/28 14:15:12;;;;;;;2.50;1.80;;;;;;;22.15;37.70;99046.27;2093112;85;20984;-79
2021/05/28 14:18:14;;;;;;;1.82;1.60;;;;;;;22.08;37.65;99052.23;2093385;85;21068;-79
2021/05/28 14:21:15;;;;;;;1.80;1.70;;;;;;;22.02;37.50;99054.19;2093204;85;21024;-79
2021/05/28 14:24:16;;;;;;;17.75;2.60;;;;;;;21.97;37.64;99061.43;2091846;85;21000;-79
2021/05/28 14:27:16;;;;;;;1.92;1.57;;;;;;;22.00;37.86;99056.89;2082480;85;20949;-79
2021/05/28 14:30:17;;;;;;;3.98;1.72;;;;;;;22.09;38.05;99047.33;2082608;85;20948;-78